<<    April 2014    >>
Datum    Temp.       Tempmin      Tempmax    Taup.       Taup.min      Taup.max    Feuchte    Feuchtemin    Feuchtemax    Druck    Druckmin    Druckmax    Regen    Wind    Benmax  
  01.04.2014  15,8    9,5    07:12    22,3    15:55  3,1    0,4    02:10    5,7    23:59  44,3    31    13:53    67    23:58  1011,2    1009    15:50    1014    00:00  0,0  1,4  28,1  
  02.04.2014  15,3    7,8    07:14    24,0    16:45  4,6    1,9    17:23    7,1    08:38  53,8    25    17:07    84    07:20  1006,9    1004    16:19    1010    00:00  0,0  1,4  10,4  
  03.04.2014  16,1    10,1    07:10    23,2    14:04  5,5    3,9    18:19    7,8    08:55  52,5    30    14:10    75    08:07  1004,0    1003    00:35    1007    23:48  0,0  1,0  13,7  
  04.04.2014  15,2    12,5    01:43    19,5    15:01  9,0    6,8    00:47    12,1    11:08  67,6    45    16:51    86    09:38  1007,6    1005    01:04    1011    22:33  0,0  1,7  12,2  
  05.04.2014  13,2    8,7    23:57    17,0    13:43  9,3    6,7    23:07    12,1    11:05  78,5    57    14:01    94    09:27  1014,8    1011    00:00    1018    20:34  0,0  2,1  13,7  
  06.04.2014  13,6    7,0    07:09    20,0    17:12  7,9    6,3    14:38    11,0    11:41  72,4    43    14:38    98    06:11  1017,9    1017    03:27    1019    10:33  0,0  1,2  9,7  
  07.04.2014  18,1    13,3    05:12    23,4    15:21  9,0    4,4    23:15    12,6    08:42  58,7    33    17:26    84    07:09  1014,3    1008    21:17    1018    00:00  0,9  2,4  23,8  
  08.04.2014  11,2    6,0    23:59    14,9    00:00  5,0    -1,8    16:14    12,2    04:29  67,3    38    16:07    92    04:48  1015,6    1008    03:03    1024    22:32  4,0  4,5  25,6  
  09.04.2014  9,8    4,1    03:16    15,4    17:14  3,0    -0,1    18:42    7,7    09:33  67,4    36    17:38    98    07:43  1025,0    1023    00:00    1026    05:35  0,0  2,8  19,4  
  10.04.2014  13,1    8,6    03:39    18,4    14:02  4,1    2,3    00:00    5,7    23:53  55,7    40    14:06    71    23:53  1022,5    1019    17:31    1026    00:04  0,0  1,5  10,4  
  11.04.2014  13,3    7,9    23:56    17,9    13:15  5,5    2,6    20:12    7,6    10:40  60,5    45    13:16    75    23:59  1018,6    1017    14:31    1020    00:00  0,0  2,2  14,4  
  12.04.2014  10,8    3,4    06:51    17,4    15:01  2,8    -1,1    18:58    7,9    10:16  62,5    33    18:47    94    08:30  1019,2    1017    15:16    1021    07:46  0,0  2,0  14,0  
  13.04.2014  11,3    6,7    06:53    16,2    17:13  3,1    -0,2    19:34    7,1    11:00  58,6    37    17:32    80    08:08  1019,9    1018    00:00    1022    10:25  0,0  2,6  17,3  
  14.04.2014  9,6    5,7    22:16    14,4    14:58  2,6    -2,5    17:52    6,9    12:38  63,3    35    16:49    82    08:51  1019,8    1016    05:01    1024    21:47  1,8  5,5  26,6  
  15.04.2014  7,6    3,8    05:42    11,7    17:43  -0,5    -3,5    20:12    2,5    08:15  59,6    38    16:17    85    06:03  1027,8    1024    00:00    1031    22:31  0,0  4,6  21,2  
  16.04.2014  9,0    0,6    06:53    16,9    17:06  -2,4    -4,7    20:10    1,9    09:13  50,2    25    15:25    85    07:44  1030,5    1027    19:15    1033    10:01  0,0  1,7  16,2  
  17.04.2014  12,4    3,7    06:31    19,9    16:47  -2,4    -3,9    22:09    -0,1    12:15  38,5    23    15:35    63    07:14  1022,5    1014    23:59    1028    00:00  0,0  2,5  14,8  
  18.04.2014  10,5    7,1    06:53    14,1    00:00  1,7    -3,7    16:27    7,1    04:45  58,2    30    16:27    89    04:45  1015,3    1013    03:17    1018    23:46  0,0  4,9  24,5  
  19.04.2014  11,7    4,6    02:00    19,1    16:04  2,2    -0,7    13:15    5,5    23:59  56,2    28    15:03    87    07:32  1015,9    1011    23:59    1019    08:59  0,0  3,6  20,2  
  20.04.2014  16,1    8,1    04:33    24,0    15:55  4,0    -1,2    20:03    11,4    08:54  50,6    22    18:16    88    07:08  1007,4    1004    16:59    1012    00:15  0,0  2,5  17,3  
  21.04.2014  14,1    8,3    06:22    19,6    16:11  4,8    1,8    03:05    7,5    22:58  55,1    35    16:19    76    07:26  1005,5    1003    14:19    1007    00:00  0,0  2,3  14,4  
  22.04.2014  14,9    9,3    02:18    20,5    16:23  6,8    3,3    18:09    10,6    08:32  62,6    33    16:29    92    06:52  1011,1    1005    00:14    1016    23:59  0,0  1,6  11,5  
  23.04.2014  15,6    9,7    03:35    23,2    16:01  8,2    4,4    16:52    12,4    21:21  66,3    31    16:08    92    08:15  1018,5    1016    00:00    1020    09:43  0,9  1,4  11,5  
  24.04.2014  15,8    11,0    06:33    23,4    16:31  9,2    3,1    16:52    12,9    22:46  68,7    29    16:47    95    23:35  1017,7    1014    22:43    1020    00:00  3,9  1,5  14,0  
  25.04.2014  17,4    9,6    06:12    26,0    15:17  9,0    2,0    18:50    14,6    09:23  65,4    25    17:07    98    02:26  1011,1    1008    17:28    1015    00:00  0,0  1,8  14,0  
  26.04.2014  15,8    10,5    06:32    21,0    15:32  7,6    3,6    16:43    11,8    23:49  61,3    33    15:18    88    23:49  1011,2    1007    22:46    1014    00:44  0,9  1,7  10,1  
  27.04.2014  13,7    11,0    08:11    17,1    15:34  10,5    7,8    15:33    14,0    12:02  82,6    55    15:33    98    07:20  1007,7    1007    00:28    1010    23:59  6,7  1,1  11,5  
  28.04.2014  14,4    9,2    04:59    19,4    13:35  7,9    3,2    17:19    11,4    08:55  68,8    37    17:09    97    06:47  1010,6    1009    03:43    1013    23:59  0,0  1,5  10,4  
  29.04.2014  13,7    12,2    22:56    15,6    17:07  12,3    9,1    00:00    14,2    13:19  91,6    71    00:00    98    04:26  1012,1    1011    02:42    1013    00:00  3,9  0,8  9,4  
  30.04.2014  15,5    11,8    05:57    20,8    15:37  11,8    9,3    16:22    14,2    09:35  80,6    49    16:17    98    00:22  1010,8    1009    05:14    1012    00:00  0,0  1,6  11,9  
 
  Gesamt  13,5  0,6            26,0            5,5  -4,7            14,6            62,6  22            98            1015,1  1003            1033            22,9  2,2  28,1  
 
  Mittelwert  13,5  8,1            19,2            5,5  2,0            9,2            62,6  36,4            87,0            1015,1  1011,9            1018,0            0,8  2,2  15,7  
  Minimum  7,6  0,6            11,7            -2,4  -4,7            -0,1            38,5  22,0            63,0            1004,0  1003,0            1007,0            0,0  0,8  9,4  
  Maximum  18,1  13,3            26,0            12,3  9,3            14,6            91,6  71,0            98,0            1030,5  1027,0            1033,0            6,7  5,5  28,1  

  Heie Tage    Tmax >=30C     0  
  Sommertage    Tmax >=25C     1  
  Warme Tage    Tmax >=20C     12  
  Kalte Tage    Tmax  <10C     0  
  Frosttage    Tmin  <0C     0  
  Eistage    Tmax  <0C     0  
  Regentage > 0 mm    8  
  Regentage > 2 mm    4  
  Regentage > 10 mm    0  
  Regentage > 20 mm    0